<?xml version="1.0" encoding="UTF-8" standalone="no" ?>
<gpx xmlns="http://www.topografix.com/GPX/1/1" xmlns:xsi="http://www.w3.org/2001/XMLSchema-instance" xsi:schemaLocation="http://www.topografix.com/GPX/1/1 http://www.topografix.com/GPX/1/1/gpx.xsd" version="1.1" creator="VisuGPX - https://www.visugpx.com">
  <metadata>
    <name>lac noir</name>
    <desc><![CDATA[lac noir - la palud]]></desc>
  </metadata>
  <trk>
    <name><![CDATA[lac noir]]></name>
    <desc><![CDATA[<h1>OruxMaps</h1><br /><hr align="center" width="480" style="height: 2px; width: 517px"/><h2>Nom: lac noir</h2><br /><p>Temps de départ: 07/05/2014 11:25</p><p>Temps d'arrivée: 07/05/2014 12:23</p><p>Distance: 12,5 km (00:58)</p><p>Temps déplacement: 00:45</p><p>Vitesse moyenne: 12,9 km/h</p><p>Vitesse moyenne: 16,4 km/h</p><p>Vitess Max.: 46,5 km/h</p><p>Altitude minimale: 263 m</p><p>Altitude maximale: 829 m</p><p>Vitesse d'élévation: 993,7 m/h</p><p>Vitesse de descente: -1150,6 m/h</p><p>Gain Altitude: 218 m</p><p>Perte Altitude: -709 m</p><p>Temps d'élévation: 00:13</p><p>Temps de descente: 00:36</p><hr align="center" width="480" style="height: 2px; width: 517px"/>]]></desc>
    <trkseg>
      <trkpt lat="45.48103" lon="5.93254">
        <ele>827</ele>
        <time>2014-07-05T09:25:37Z</time>
      </trkpt>
      <trkpt lat="45.48097" lon="5.93281">
        <ele>824</ele>
        <time>2014-07-05T09:25:41Z</time>
      </trkpt>
      <trkpt lat="45.48097" lon="5.93307">
        <ele>821</ele>
        <time>2014-07-05T09:25:55Z</time>
      </trkpt>
      <trkpt lat="45.48084" lon="5.93324">
        <ele>819</ele>
        <time>2014-07-05T09:27:11Z</time>
      </trkpt>
      <trkpt lat="45.48069" lon="5.93308">
        <ele>827</ele>
        <time>2014-07-05T09:28:00Z</time>
      </trkpt>
      <trkpt lat="45.48061" lon="5.93284">
        <ele>830</ele>
        <time>2014-07-05T09:28:23Z</time>
      </trkpt>
      <trkpt lat="45.48065" lon="5.93259">
        <ele>831</ele>
        <time>2014-07-05T09:28:57Z</time>
      </trkpt>
      <trkpt lat="45.48077" lon="5.93281">
        <ele>830</ele>
        <time>2014-07-05T09:29:40Z</time>
      </trkpt>
      <trkpt lat="45.48086" lon="5.93311">
        <ele>820</ele>
        <time>2014-07-05T09:29:46Z</time>
      </trkpt>
      <trkpt lat="45.48097" lon="5.93335">
        <ele>812</ele>
        <time>2014-07-05T09:29:56Z</time>
      </trkpt>
      <trkpt lat="45.48112" lon="5.9335">
        <ele>809</ele>
        <time>2014-07-05T09:30:01Z</time>
      </trkpt>
      <trkpt lat="45.48125" lon="5.93369">
        <ele>806</ele>
        <time>2014-07-05T09:30:06Z</time>
      </trkpt>
      <trkpt lat="45.48142" lon="5.93387">
        <ele>803</ele>
        <time>2014-07-05T09:30:12Z</time>
      </trkpt>
      <trkpt lat="45.48151" lon="5.9341">
        <ele>799</ele>
        <time>2014-07-05T09:30:21Z</time>
      </trkpt>
      <trkpt lat="45.48167" lon="5.93426">
        <ele>789</ele>
        <time>2014-07-05T09:30:26Z</time>
      </trkpt>
      <trkpt lat="45.48186" lon="5.93435">
        <ele>785</ele>
        <time>2014-07-05T09:30:29Z</time>
      </trkpt>
      <trkpt lat="45.48206" lon="5.93439">
        <ele>783</ele>
        <time>2014-07-05T09:30:32Z</time>
      </trkpt>
      <trkpt lat="45.48225" lon="5.93446">
        <ele>782</ele>
        <time>2014-07-05T09:30:37Z</time>
      </trkpt>
      <trkpt lat="45.4824" lon="5.93463">
        <ele>780</ele>
        <time>2014-07-05T09:30:43Z</time>
      </trkpt>
      <trkpt lat="45.48247" lon="5.93488">
        <ele>774</ele>
        <time>2014-07-05T09:30:48Z</time>
      </trkpt>
      <trkpt lat="45.48256" lon="5.93512">
        <ele>765</ele>
        <time>2014-07-05T09:30:56Z</time>
      </trkpt>
      <trkpt lat="45.48265" lon="5.93538">
        <ele>760</ele>
        <time>2014-07-05T09:31:03Z</time>
      </trkpt>
      <trkpt lat="45.48274" lon="5.93562">
        <ele>757</ele>
        <time>2014-07-05T09:31:07Z</time>
      </trkpt>
      <trkpt lat="45.4828" lon="5.93591">
        <ele>752</ele>
        <time>2014-07-05T09:31:13Z</time>
      </trkpt>
      <trkpt lat="45.48292" lon="5.93615">
        <ele>750</ele>
        <time>2014-07-05T09:31:19Z</time>
      </trkpt>
      <trkpt lat="45.48308" lon="5.93638">
        <ele>749</ele>
        <time>2014-07-05T09:31:24Z</time>
      </trkpt>
      <trkpt lat="45.48324" lon="5.93654">
        <ele>747</ele>
        <time>2014-07-05T09:31:28Z</time>
      </trkpt>
      <trkpt lat="45.4834" lon="5.93669">
        <ele>742</ele>
        <time>2014-07-05T09:31:33Z</time>
      </trkpt>
      <trkpt lat="45.48355" lon="5.93684">
        <ele>738</ele>
        <time>2014-07-05T09:31:36Z</time>
      </trkpt>
      <trkpt lat="45.48372" lon="5.93703">
        <ele>735</ele>
        <time>2014-07-05T09:31:40Z</time>
      </trkpt>
      <trkpt lat="45.48388" lon="5.93719">
        <ele>733</ele>
        <time>2014-07-05T09:31:43Z</time>
      </trkpt>
      <trkpt lat="45.48408" lon="5.93722">
        <ele>732</ele>
        <time>2014-07-05T09:31:48Z</time>
      </trkpt>
      <trkpt lat="45.48426" lon="5.93711">
        <ele>726</ele>
        <time>2014-07-05T09:31:54Z</time>
      </trkpt>
      <trkpt lat="45.48445" lon="5.93715">
        <ele>725</ele>
        <time>2014-07-05T09:32:15Z</time>
      </trkpt>
      <trkpt lat="45.48465" lon="5.93719">
        <ele>724</ele>
        <time>2014-07-05T09:32:21Z</time>
      </trkpt>
      <trkpt lat="45.48468" lon="5.93749">
        <ele>722</ele>
        <time>2014-07-05T09:32:26Z</time>
      </trkpt>
      <trkpt lat="45.48464" lon="5.93775">
        <ele>721</ele>
        <time>2014-07-05T09:32:32Z</time>
      </trkpt>
      <trkpt lat="45.48467" lon="5.93802">
        <ele>721</ele>
        <time>2014-07-05T09:32:40Z</time>
      </trkpt>
      <trkpt lat="45.4847" lon="5.93828">
        <ele>720</ele>
        <time>2014-07-05T09:32:48Z</time>
      </trkpt>
      <trkpt lat="45.48456" lon="5.93864">
        <ele>721</ele>
        <time>2014-07-05T09:33:14Z</time>
      </trkpt>
      <trkpt lat="45.48451" lon="5.93892">
        <ele>721</ele>
        <time>2014-07-05T09:33:20Z</time>
      </trkpt>
      <trkpt lat="45.48452" lon="5.93918">
        <ele>718</ele>
        <time>2014-07-05T09:33:27Z</time>
      </trkpt>
      <trkpt lat="45.48454" lon="5.93947">
        <ele>717</ele>
        <time>2014-07-05T09:33:32Z</time>
      </trkpt>
      <trkpt lat="45.48459" lon="5.93975">
        <ele>715</ele>
        <time>2014-07-05T09:33:38Z</time>
      </trkpt>
      <trkpt lat="45.48459" lon="5.94001">
        <ele>708</ele>
        <time>2014-07-05T09:33:52Z</time>
      </trkpt>
      <trkpt lat="45.48458" lon="5.9403">
        <ele>707</ele>
        <time>2014-07-05T09:34:08Z</time>
      </trkpt>
      <trkpt lat="45.4846" lon="5.9406">
        <ele>705</ele>
        <time>2014-07-05T09:34:13Z</time>
      </trkpt>
      <trkpt lat="45.48462" lon="5.94088">
        <ele>699</ele>
        <time>2014-07-05T09:34:18Z</time>
      </trkpt>
      <trkpt lat="45.48465" lon="5.94116">
        <ele>698</ele>
        <time>2014-07-05T09:34:25Z</time>
      </trkpt>
      <trkpt lat="45.48466" lon="5.94145">
        <ele>697</ele>
        <time>2014-07-05T09:34:32Z</time>
      </trkpt>
      <trkpt lat="45.48464" lon="5.94171">
        <ele>695</ele>
        <time>2014-07-05T09:34:41Z</time>
      </trkpt>
      <trkpt lat="45.48468" lon="5.94197">
        <ele>694</ele>
        <time>2014-07-05T09:34:51Z</time>
      </trkpt>
      <trkpt lat="45.48472" lon="5.94222">
        <ele>693</ele>
        <time>2014-07-05T09:35:01Z</time>
      </trkpt>
      <trkpt lat="45.48465" lon="5.94248">
        <ele>693</ele>
        <time>2014-07-05T09:35:08Z</time>
      </trkpt>
      <trkpt lat="45.48458" lon="5.94278">
        <ele>689</ele>
        <time>2014-07-05T09:35:14Z</time>
      </trkpt>
      <trkpt lat="45.48448" lon="5.94301">
        <ele>689</ele>
        <time>2014-07-05T09:35:17Z</time>
      </trkpt>
      <trkpt lat="45.48444" lon="5.94332">
        <ele>690</ele>
        <time>2014-07-05T09:35:22Z</time>
      </trkpt>
      <trkpt lat="45.48442" lon="5.94362">
        <ele>683</ele>
        <time>2014-07-05T09:35:26Z</time>
      </trkpt>
      <trkpt lat="45.48436" lon="5.94392">
        <ele>681</ele>
        <time>2014-07-05T09:35:30Z</time>
      </trkpt>
      <trkpt lat="45.48423" lon="5.94416">
        <ele>684</ele>
        <time>2014-07-05T09:35:34Z</time>
      </trkpt>
      <trkpt lat="45.48407" lon="5.94439">
        <ele>681</ele>
        <time>2014-07-05T09:35:37Z</time>
      </trkpt>
      <trkpt lat="45.48389" lon="5.94455">
        <ele>679</ele>
        <time>2014-07-05T09:35:41Z</time>
      </trkpt>
      <trkpt lat="45.48371" lon="5.94458">
        <ele>679</ele>
        <time>2014-07-05T09:35:44Z</time>
      </trkpt>
      <trkpt lat="45.48355" lon="5.94473">
        <ele>677</ele>
        <time>2014-07-05T09:35:48Z</time>
      </trkpt>
      <trkpt lat="45.48333" lon="5.94486">
        <ele>674</ele>
        <time>2014-07-05T09:35:52Z</time>
      </trkpt>
      <trkpt lat="45.48311" lon="5.94495">
        <ele>676</ele>
        <time>2014-07-05T09:35:56Z</time>
      </trkpt>
      <trkpt lat="45.48292" lon="5.94504">
        <ele>666</ele>
        <time>2014-07-05T09:36:01Z</time>
      </trkpt>
      <trkpt lat="45.48275" lon="5.94518">
        <ele>666</ele>
        <time>2014-07-05T09:36:08Z</time>
      </trkpt>
      <trkpt lat="45.48261" lon="5.94535">
        <ele>665</ele>
        <time>2014-07-05T09:36:14Z</time>
      </trkpt>
      <trkpt lat="45.48246" lon="5.94561">
        <ele>665</ele>
        <time>2014-07-05T09:36:18Z</time>
      </trkpt>
      <trkpt lat="45.48235" lon="5.94588">
        <ele>657</ele>
        <time>2014-07-05T09:36:22Z</time>
      </trkpt>
      <trkpt lat="45.48224" lon="5.94614">
        <ele>657</ele>
        <time>2014-07-05T09:36:26Z</time>
      </trkpt>
      <trkpt lat="45.48215" lon="5.94637">
        <ele>656</ele>
        <time>2014-07-05T09:36:30Z</time>
      </trkpt>
      <trkpt lat="45.48194" lon="5.94653">
        <ele>657</ele>
        <time>2014-07-05T09:36:33Z</time>
      </trkpt>
      <trkpt lat="45.48177" lon="5.94664">
        <ele>658</ele>
        <time>2014-07-05T09:36:38Z</time>
      </trkpt>
      <trkpt lat="45.48159" lon="5.9468">
        <ele>659</ele>
        <time>2014-07-05T09:36:44Z</time>
      </trkpt>
      <trkpt lat="45.48144" lon="5.94695">
        <ele>659</ele>
        <time>2014-07-05T09:36:50Z</time>
      </trkpt>
      <trkpt lat="45.48127" lon="5.94709">
        <ele>660</ele>
        <time>2014-07-05T09:36:58Z</time>
      </trkpt>
      <trkpt lat="45.4811" lon="5.94728">
        <ele>660</ele>
        <time>2014-07-05T09:37:04Z</time>
      </trkpt>
      <trkpt lat="45.48094" lon="5.94743">
        <ele>661</ele>
        <time>2014-07-05T09:37:10Z</time>
      </trkpt>
      <trkpt lat="45.48077" lon="5.94756">
        <ele>663</ele>
        <time>2014-07-05T09:37:19Z</time>
      </trkpt>
      <trkpt lat="45.48084" lon="5.94783">
        <ele>659</ele>
        <time>2014-07-05T09:37:31Z</time>
      </trkpt>
      <trkpt lat="45.48101" lon="5.94797">
        <ele>659</ele>
        <time>2014-07-05T09:37:36Z</time>
      </trkpt>
      <trkpt lat="45.4812" lon="5.94809">
        <ele>658</ele>
        <time>2014-07-05T09:37:40Z</time>
      </trkpt>
      <trkpt lat="45.48138" lon="5.94827">
        <ele>657</ele>
        <time>2014-07-05T09:37:44Z</time>
      </trkpt>
      <trkpt lat="45.48151" lon="5.94849">
        <ele>656</ele>
        <time>2014-07-05T09:37:50Z</time>
      </trkpt>
      <trkpt lat="45.48167" lon="5.94861">
        <ele>650</ele>
        <time>2014-07-05T09:37:58Z</time>
      </trkpt>
      <trkpt lat="45.48181" lon="5.94888">
        <ele>649</ele>
        <time>2014-07-05T09:38:03Z</time>
      </trkpt>
      <trkpt lat="45.48193" lon="5.94908">
        <ele>648</ele>
        <time>2014-07-05T09:38:13Z</time>
      </trkpt>
      <trkpt lat="45.48212" lon="5.94911">
        <ele>646</ele>
        <time>2014-07-05T09:38:22Z</time>
      </trkpt>
      <trkpt lat="45.48231" lon="5.94923">
        <ele>642</ele>
        <time>2014-07-05T09:38:29Z</time>
      </trkpt>
      <trkpt lat="45.48253" lon="5.94925">
        <ele>637</ele>
        <time>2014-07-05T09:38:36Z</time>
      </trkpt>
      <trkpt lat="45.48265" lon="5.94945">
        <ele>634</ele>
        <time>2014-07-05T09:38:41Z</time>
      </trkpt>
      <trkpt lat="45.48285" lon="5.94947">
        <ele>632</ele>
        <time>2014-07-05T09:38:50Z</time>
      </trkpt>
      <trkpt lat="45.48304" lon="5.94934">
        <ele>631</ele>
        <time>2014-07-05T09:38:56Z</time>
      </trkpt>
      <trkpt lat="45.48321" lon="5.9492">
        <ele>629</ele>
        <time>2014-07-05T09:39:06Z</time>
      </trkpt>
      <trkpt lat="45.48331" lon="5.94896">
        <ele>631</ele>
        <time>2014-07-05T09:39:15Z</time>
      </trkpt>
      <trkpt lat="45.4834" lon="5.94868">
        <ele>625</ele>
        <time>2014-07-05T09:39:22Z</time>
      </trkpt>
      <trkpt lat="45.48353" lon="5.94843">
        <ele>625</ele>
        <time>2014-07-05T09:39:28Z</time>
      </trkpt>
      <trkpt lat="45.48354" lon="5.94815">
        <ele>624</ele>
        <time>2014-07-05T09:39:33Z</time>
      </trkpt>
      <trkpt lat="45.48369" lon="5.94798">
        <ele>623</ele>
        <time>2014-07-05T09:39:45Z</time>
      </trkpt>
      <trkpt lat="45.48384" lon="5.94781">
        <ele>622</ele>
        <time>2014-07-05T09:39:55Z</time>
      </trkpt>
      <trkpt lat="45.48402" lon="5.94772">
        <ele>621</ele>
        <time>2014-07-05T09:40:04Z</time>
      </trkpt>
      <trkpt lat="45.48419" lon="5.94758">
        <ele>616</ele>
        <time>2014-07-05T09:40:15Z</time>
      </trkpt>
      <trkpt lat="45.48439" lon="5.94768">
        <ele>615</ele>
        <time>2014-07-05T09:40:23Z</time>
      </trkpt>
      <trkpt lat="45.48453" lon="5.94788">
        <ele>614</ele>
        <time>2014-07-05T09:40:28Z</time>
      </trkpt>
      <trkpt lat="45.48466" lon="5.94807">
        <ele>613</ele>
        <time>2014-07-05T09:40:34Z</time>
      </trkpt>
      <trkpt lat="45.48479" lon="5.94825">
        <ele>612</ele>
        <time>2014-07-05T09:40:43Z</time>
      </trkpt>
      <trkpt lat="45.48488" lon="5.94849">
        <ele>612</ele>
        <time>2014-07-05T09:40:51Z</time>
      </trkpt>
      <trkpt lat="45.4849" lon="5.94877">
        <ele>613</ele>
        <time>2014-07-05T09:41:02Z</time>
      </trkpt>
      <trkpt lat="45.48492" lon="5.94904">
        <ele>611</ele>
        <time>2014-07-05T09:41:29Z</time>
      </trkpt>
      <trkpt lat="45.48495" lon="5.9493">
        <ele>611</ele>
        <time>2014-07-05T09:41:37Z</time>
      </trkpt>
      <trkpt lat="45.48494" lon="5.94955">
        <ele>612</ele>
        <time>2014-07-05T09:41:43Z</time>
      </trkpt>
      <trkpt lat="45.48498" lon="5.94981">
        <ele>611</ele>
        <time>2014-07-05T09:41:50Z</time>
      </trkpt>
      <trkpt lat="45.48496" lon="5.95009">
        <ele>611</ele>
        <time>2014-07-05T09:42:06Z</time>
      </trkpt>
      <trkpt lat="45.48489" lon="5.95038">
        <ele>612</ele>
        <time>2014-07-05T09:42:18Z</time>
      </trkpt>
      <trkpt lat="45.4848" lon="5.95063">
        <ele>613</ele>
        <time>2014-07-05T09:42:29Z</time>
      </trkpt>
      <trkpt lat="45.48471" lon="5.95086">
        <ele>615</ele>
        <time>2014-07-05T09:42:37Z</time>
      </trkpt>
      <trkpt lat="45.48464" lon="5.95115">
        <ele>616</ele>
        <time>2014-07-05T09:42:50Z</time>
      </trkpt>
      <trkpt lat="45.48458" lon="5.95141">
        <ele>616</ele>
        <time>2014-07-05T09:43:10Z</time>
      </trkpt>
      <trkpt lat="45.48456" lon="5.95171">
        <ele>618</ele>
        <time>2014-07-05T09:43:16Z</time>
      </trkpt>
      <trkpt lat="45.48466" lon="5.95193">
        <ele>618</ele>
        <time>2014-07-05T09:43:25Z</time>
      </trkpt>
      <trkpt lat="45.48454" lon="5.95214">
        <ele>617</ele>
        <time>2014-07-05T09:43:46Z</time>
      </trkpt>
      <trkpt lat="45.48444" lon="5.95239">
        <ele>618</ele>
        <time>2014-07-05T09:43:53Z</time>
      </trkpt>
      <trkpt lat="45.48441" lon="5.95268">
        <ele>613</ele>
        <time>2014-07-05T09:44:00Z</time>
      </trkpt>
      <trkpt lat="45.4845" lon="5.95293">
        <ele>611</ele>
        <time>2014-07-05T09:44:09Z</time>
      </trkpt>
      <trkpt lat="45.48436" lon="5.95312">
        <ele>610</ele>
        <time>2014-07-05T09:44:41Z</time>
      </trkpt>
      <trkpt lat="45.48422" lon="5.95336">
        <ele>606</ele>
        <time>2014-07-05T09:44:46Z</time>
      </trkpt>
      <trkpt lat="45.48407" lon="5.95354">
        <ele>607</ele>
        <time>2014-07-05T09:44:52Z</time>
      </trkpt>
      <trkpt lat="45.48391" lon="5.95383">
        <ele>605</ele>
        <time>2014-07-05T09:45:02Z</time>
      </trkpt>
      <trkpt lat="45.4838" lon="5.95405">
        <ele>605</ele>
        <time>2014-07-05T09:45:10Z</time>
      </trkpt>
      <trkpt lat="45.48373" lon="5.95432">
        <ele>596</ele>
        <time>2014-07-05T09:45:15Z</time>
      </trkpt>
      <trkpt lat="45.48357" lon="5.95454">
        <ele>595</ele>
        <time>2014-07-05T09:45:21Z</time>
      </trkpt>
      <trkpt lat="45.48338" lon="5.95462">
        <ele>595</ele>
        <time>2014-07-05T09:45:26Z</time>
      </trkpt>
      <trkpt lat="45.48322" lon="5.95445">
        <ele>601</ele>
        <time>2014-07-05T09:45:51Z</time>
      </trkpt>
      <trkpt lat="45.48307" lon="5.95461">
        <ele>598</ele>
        <time>2014-07-05T09:46:08Z</time>
      </trkpt>
      <trkpt lat="45.48291" lon="5.95476">
        <ele>596</ele>
        <time>2014-07-05T09:46:15Z</time>
      </trkpt>
      <trkpt lat="45.4828" lon="5.95503">
        <ele>583</ele>
        <time>2014-07-05T09:46:19Z</time>
      </trkpt>
      <trkpt lat="45.48267" lon="5.95521">
        <ele>582</ele>
        <time>2014-07-05T09:46:23Z</time>
      </trkpt>
      <trkpt lat="45.48248" lon="5.95532">
        <ele>582</ele>
        <time>2014-07-05T09:46:28Z</time>
      </trkpt>
      <trkpt lat="45.48231" lon="5.95544">
        <ele>580</ele>
        <time>2014-07-05T09:46:35Z</time>
      </trkpt>
      <trkpt lat="45.4821" lon="5.95556">
        <ele>580</ele>
        <time>2014-07-05T09:46:41Z</time>
      </trkpt>
      <trkpt lat="45.48191" lon="5.95565">
        <ele>580</ele>
        <time>2014-07-05T09:46:46Z</time>
      </trkpt>
      <trkpt lat="45.48179" lon="5.95584">
        <ele>574</ele>
        <time>2014-07-05T09:46:58Z</time>
      </trkpt>
      <trkpt lat="45.48173" lon="5.95614">
        <ele>571</ele>
        <time>2014-07-05T09:47:04Z</time>
      </trkpt>
      <trkpt lat="45.4816" lon="5.95637">
        <ele>574</ele>
        <time>2014-07-05T09:47:10Z</time>
      </trkpt>
      <trkpt lat="45.48154" lon="5.95664">
        <ele>571</ele>
        <time>2014-07-05T09:47:18Z</time>
      </trkpt>
      <trkpt lat="45.48155" lon="5.95692">
        <ele>566</ele>
        <time>2014-07-05T09:47:22Z</time>
      </trkpt>
      <trkpt lat="45.4816" lon="5.95717">
        <ele>564</ele>
        <time>2014-07-05T09:47:26Z</time>
      </trkpt>
      <trkpt lat="45.48165" lon="5.95748">
        <ele>558</ele>
        <time>2014-07-05T09:47:31Z</time>
      </trkpt>
      <trkpt lat="45.48163" lon="5.95774">
        <ele>557</ele>
        <time>2014-07-05T09:47:36Z</time>
      </trkpt>
      <trkpt lat="45.48156" lon="5.95803">
        <ele>556</ele>
        <time>2014-07-05T09:47:43Z</time>
      </trkpt>
      <trkpt lat="45.48159" lon="5.9583">
        <ele>553</ele>
        <time>2014-07-05T09:47:48Z</time>
      </trkpt>
      <trkpt lat="45.48155" lon="5.95858">
        <ele>551</ele>
        <time>2014-07-05T09:47:55Z</time>
      </trkpt>
      <trkpt lat="45.48153" lon="5.95888">
        <ele>550</ele>
        <time>2014-07-05T09:48:02Z</time>
      </trkpt>
      <trkpt lat="45.48154" lon="5.95917">
        <ele>547</ele>
        <time>2014-07-05T09:48:07Z</time>
      </trkpt>
      <trkpt lat="45.48164" lon="5.95946">
        <ele>544</ele>
        <time>2014-07-05T09:48:12Z</time>
      </trkpt>
      <trkpt lat="45.48163" lon="5.95971">
        <ele>543</ele>
        <time>2014-07-05T09:48:18Z</time>
      </trkpt>
      <trkpt lat="45.48151" lon="5.95997">
        <ele>541</ele>
        <time>2014-07-05T09:48:23Z</time>
      </trkpt>
      <trkpt lat="45.48143" lon="5.96027">
        <ele>538</ele>
        <time>2014-07-05T09:48:29Z</time>
      </trkpt>
      <trkpt lat="45.48148" lon="5.96053">
        <ele>537</ele>
        <time>2014-07-05T09:48:32Z</time>
      </trkpt>
      <trkpt lat="45.48144" lon="5.96079">
        <ele>535</ele>
        <time>2014-07-05T09:48:40Z</time>
      </trkpt>
      <trkpt lat="45.48131" lon="5.961">
        <ele>532</ele>
        <time>2014-07-05T09:48:47Z</time>
      </trkpt>
      <trkpt lat="45.48128" lon="5.96128">
        <ele>532</ele>
        <time>2014-07-05T09:48:55Z</time>
      </trkpt>
      <trkpt lat="45.48129" lon="5.96155">
        <ele>531</ele>
        <time>2014-07-05T09:49:05Z</time>
      </trkpt>
      <trkpt lat="45.48126" lon="5.96183">
        <ele>528</ele>
        <time>2014-07-05T09:49:12Z</time>
      </trkpt>
      <trkpt lat="45.48127" lon="5.96209">
        <ele>527</ele>
        <time>2014-07-05T09:49:24Z</time>
      </trkpt>
      <trkpt lat="45.4813" lon="5.96236">
        <ele>526</ele>
        <time>2014-07-05T09:49:28Z</time>
      </trkpt>
      <trkpt lat="45.48131" lon="5.96262">
        <ele>522</ele>
        <time>2014-07-05T09:49:32Z</time>
      </trkpt>
      <trkpt lat="45.48134" lon="5.96293">
        <ele>521</ele>
        <time>2014-07-05T09:49:36Z</time>
      </trkpt>
      <trkpt lat="45.4813" lon="5.96319">
        <ele>520</ele>
        <time>2014-07-05T09:49:40Z</time>
      </trkpt>
      <trkpt lat="45.48117" lon="5.96343">
        <ele>514</ele>
        <time>2014-07-05T09:49:44Z</time>
      </trkpt>
      <trkpt lat="45.48111" lon="5.96376">
        <ele>512</ele>
        <time>2014-07-05T09:49:49Z</time>
      </trkpt>
      <trkpt lat="45.48105" lon="5.96401">
        <ele>510</ele>
        <time>2014-07-05T09:49:53Z</time>
      </trkpt>
      <trkpt lat="45.48109" lon="5.96433">
        <ele>505</ele>
        <time>2014-07-05T09:49:57Z</time>
      </trkpt>
      <trkpt lat="45.48114" lon="5.96467">
        <ele>503</ele>
        <time>2014-07-05T09:50:01Z</time>
      </trkpt>
      <trkpt lat="45.48118" lon="5.96492">
        <ele>502</ele>
        <time>2014-07-05T09:50:05Z</time>
      </trkpt>
      <trkpt lat="45.48126" lon="5.96519">
        <ele>497</ele>
        <time>2014-07-05T09:50:09Z</time>
      </trkpt>
      <trkpt lat="45.48127" lon="5.96545">
        <ele>496</ele>
        <time>2014-07-05T09:50:12Z</time>
      </trkpt>
      <trkpt lat="45.48131" lon="5.96574">
        <ele>495</ele>
        <time>2014-07-05T09:50:16Z</time>
      </trkpt>
      <trkpt lat="45.48138" lon="5.96603">
        <ele>490</ele>
        <time>2014-07-05T09:50:20Z</time>
      </trkpt>
      <trkpt lat="45.48138" lon="5.9663">
        <ele>490</ele>
        <time>2014-07-05T09:50:24Z</time>
      </trkpt>
      <trkpt lat="45.48122" lon="5.96643">
        <ele>490</ele>
        <time>2014-07-05T09:50:29Z</time>
      </trkpt>
      <trkpt lat="45.48103" lon="5.96653">
        <ele>490</ele>
        <time>2014-07-05T09:50:34Z</time>
      </trkpt>
      <trkpt lat="45.48086" lon="5.96663">
        <ele>489</ele>
        <time>2014-07-05T09:50:39Z</time>
      </trkpt>
      <trkpt lat="45.48066" lon="5.96667">
        <ele>489</ele>
        <time>2014-07-05T09:50:44Z</time>
      </trkpt>
      <trkpt lat="45.48048" lon="5.96672">
        <ele>489</ele>
        <time>2014-07-05T09:50:49Z</time>
      </trkpt>
      <trkpt lat="45.48031" lon="5.96687">
        <ele>489</ele>
        <time>2014-07-05T09:50:53Z</time>
      </trkpt>
      <trkpt lat="45.48013" lon="5.96706">
        <ele>489</ele>
        <time>2014-07-05T09:50:57Z</time>
      </trkpt>
      <trkpt lat="45.47995" lon="5.96716">
        <ele>490</ele>
        <time>2014-07-05T09:51:00Z</time>
      </trkpt>
      <trkpt lat="45.47974" lon="5.96729">
        <ele>490</ele>
        <time>2014-07-05T09:51:04Z</time>
      </trkpt>
      <trkpt lat="45.47957" lon="5.96745">
        <ele>490</ele>
        <time>2014-07-05T09:51:08Z</time>
      </trkpt>
      <trkpt lat="45.47941" lon="5.96758">
        <ele>485</ele>
        <time>2014-07-05T09:51:12Z</time>
      </trkpt>
      <trkpt lat="45.47924" lon="5.9677">
        <ele>485</ele>
        <time>2014-07-05T09:51:16Z</time>
      </trkpt>
      <trkpt lat="45.47911" lon="5.96797">
        <ele>484</ele>
        <time>2014-07-05T09:51:22Z</time>
      </trkpt>
      <trkpt lat="45.479" lon="5.96818">
        <ele>483</ele>
        <time>2014-07-05T09:51:25Z</time>
      </trkpt>
      <trkpt lat="45.47888" lon="5.96843">
        <ele>479</ele>
        <time>2014-07-05T09:51:28Z</time>
      </trkpt>
      <trkpt lat="45.47874" lon="5.96869">
        <ele>478</ele>
        <time>2014-07-05T09:51:31Z</time>
      </trkpt>
      <trkpt lat="45.47861" lon="5.96888">
        <ele>477</ele>
        <time>2014-07-05T09:51:33Z</time>
      </trkpt>
      <trkpt lat="45.47846" lon="5.96907">
        <ele>476</ele>
        <time>2014-07-05T09:51:35Z</time>
      </trkpt>
      <trkpt lat="45.4783" lon="5.96927">
        <ele>473</ele>
        <time>2014-07-05T09:51:37Z</time>
      </trkpt>
      <trkpt lat="45.47813" lon="5.96948">
        <ele>471</ele>
        <time>2014-07-05T09:51:39Z</time>
      </trkpt>
      <trkpt lat="45.47805" lon="5.96975">
        <ele>470</ele>
        <time>2014-07-05T09:51:41Z</time>
      </trkpt>
      <trkpt lat="45.478" lon="5.97002">
        <ele>466</ele>
        <time>2014-07-05T09:51:44Z</time>
      </trkpt>
      <trkpt lat="45.47782" lon="5.97019">
        <ele>466</ele>
        <time>2014-07-05T09:51:48Z</time>
      </trkpt>
      <trkpt lat="45.47759" lon="5.97022">
        <ele>466</ele>
        <time>2014-07-05T09:51:52Z</time>
      </trkpt>
      <trkpt lat="45.47741" lon="5.97025">
        <ele>466</ele>
        <time>2014-07-05T09:51:55Z</time>
      </trkpt>
      <trkpt lat="45.47717" lon="5.97029">
        <ele>466</ele>
        <time>2014-07-05T09:51:59Z</time>
      </trkpt>
      <trkpt lat="45.47699" lon="5.97033">
        <ele>466</ele>
        <time>2014-07-05T09:52:03Z</time>
      </trkpt>
      <trkpt lat="45.4768" lon="5.97041">
        <ele>466</ele>
        <time>2014-07-05T09:52:08Z</time>
      </trkpt>
      <trkpt lat="45.47661" lon="5.97049">
        <ele>467</ele>
        <time>2014-07-05T09:52:13Z</time>
      </trkpt>
      <trkpt lat="45.4764" lon="5.97055">
        <ele>467</ele>
        <time>2014-07-05T09:52:18Z</time>
      </trkpt>
      <trkpt lat="45.47619" lon="5.97055">
        <ele>467</ele>
        <time>2014-07-05T09:52:24Z</time>
      </trkpt>
      <trkpt lat="45.47599" lon="5.97053">
        <ele>467</ele>
        <time>2014-07-05T09:52:30Z</time>
      </trkpt>
      <trkpt lat="45.47578" lon="5.97052">
        <ele>468</ele>
        <time>2014-07-05T09:52:36Z</time>
      </trkpt>
      <trkpt lat="45.47557" lon="5.97048">
        <ele>468</ele>
        <time>2014-07-05T09:52:42Z</time>
      </trkpt>
      <trkpt lat="45.47536" lon="5.97044">
        <ele>468</ele>
        <time>2014-07-05T09:52:47Z</time>
      </trkpt>
      <trkpt lat="45.47516" lon="5.97042">
        <ele>468</ele>
        <time>2014-07-05T09:52:53Z</time>
      </trkpt>
      <trkpt lat="45.47496" lon="5.97045">
        <ele>470</ele>
        <time>2014-07-05T09:52:58Z</time>
      </trkpt>
      <trkpt lat="45.47487" lon="5.97074">
        <ele>468</ele>
        <time>2014-07-05T09:53:03Z</time>
      </trkpt>
      <trkpt lat="45.4747" lon="5.97083">
        <ele>470</ele>
        <time>2014-07-05T09:53:07Z</time>
      </trkpt>
      <trkpt lat="45.47449" lon="5.97086">
        <ele>466</ele>
        <time>2014-07-05T09:53:11Z</time>
      </trkpt>
      <trkpt lat="45.47444" lon="5.97116">
        <ele>464</ele>
        <time>2014-07-05T09:53:18Z</time>
      </trkpt>
      <trkpt lat="45.47439" lon="5.97142">
        <ele>463</ele>
        <time>2014-07-05T09:53:24Z</time>
      </trkpt>
      <trkpt lat="45.47429" lon="5.97167">
        <ele>459</ele>
        <time>2014-07-05T09:53:28Z</time>
      </trkpt>
      <trkpt lat="45.47423" lon="5.97191">
        <ele>458</ele>
        <time>2014-07-05T09:53:33Z</time>
      </trkpt>
      <trkpt lat="45.4742" lon="5.97218">
        <ele>456</ele>
        <time>2014-07-05T09:53:40Z</time>
      </trkpt>
      <trkpt lat="45.47415" lon="5.9725">
        <ele>456</ele>
        <time>2014-07-05T09:53:44Z</time>
      </trkpt>
      <trkpt lat="45.47408" lon="5.97275">
        <ele>456</ele>
        <time>2014-07-05T09:53:47Z</time>
      </trkpt>
      <trkpt lat="45.474" lon="5.97303">
        <ele>455</ele>
        <time>2014-07-05T09:53:50Z</time>
      </trkpt>
      <trkpt lat="45.47408" lon="5.97331">
        <ele>452</ele>
        <time>2014-07-05T09:53:56Z</time>
      </trkpt>
      <trkpt lat="45.47419" lon="5.97357">
        <ele>445</ele>
        <time>2014-07-05T09:53:59Z</time>
      </trkpt>
      <trkpt lat="45.47431" lon="5.9738">
        <ele>443</ele>
        <time>2014-07-05T09:54:02Z</time>
      </trkpt>
      <trkpt lat="45.47437" lon="5.97405">
        <ele>442</ele>
        <time>2014-07-05T09:54:06Z</time>
      </trkpt>
      <trkpt lat="45.47442" lon="5.97439">
        <ele>434</ele>
        <time>2014-07-05T09:54:10Z</time>
      </trkpt>
      <trkpt lat="45.47448" lon="5.9747">
        <ele>431</ele>
        <time>2014-07-05T09:54:16Z</time>
      </trkpt>
      <trkpt lat="45.47451" lon="5.97497">
        <ele>429</ele>
        <time>2014-07-05T09:54:36Z</time>
      </trkpt>
      <trkpt lat="45.47444" lon="5.97522">
        <ele>415</ele>
        <time>2014-07-05T09:55:02Z</time>
      </trkpt>
      <trkpt lat="45.47423" lon="5.97536">
        <ele>414</ele>
        <time>2014-07-05T09:55:14Z</time>
      </trkpt>
      <trkpt lat="45.47404" lon="5.97549">
        <ele>414</ele>
        <time>2014-07-05T09:55:31Z</time>
      </trkpt>
      <trkpt lat="45.47391" lon="5.97567">
        <ele>411</ele>
        <time>2014-07-05T09:55:53Z</time>
      </trkpt>
      <trkpt lat="45.47385" lon="5.97594">
        <ele>395</ele>
        <time>2014-07-05T09:56:11Z</time>
      </trkpt>
      <trkpt lat="45.47383" lon="5.97622">
        <ele>391</ele>
        <time>2014-07-05T09:56:27Z</time>
      </trkpt>
      <trkpt lat="45.47398" lon="5.97655">
        <ele>385</ele>
        <time>2014-07-05T09:56:39Z</time>
      </trkpt>
      <trkpt lat="45.47406" lon="5.97684">
        <ele>372</ele>
        <time>2014-07-05T09:56:45Z</time>
      </trkpt>
      <trkpt lat="45.47418" lon="5.97707">
        <ele>370</ele>
        <time>2014-07-05T09:56:49Z</time>
      </trkpt>
      <trkpt lat="45.47432" lon="5.97729">
        <ele>367</ele>
        <time>2014-07-05T09:56:53Z</time>
      </trkpt>
      <trkpt lat="45.4745" lon="5.9774">
        <ele>368</ele>
        <time>2014-07-05T09:56:56Z</time>
      </trkpt>
      <trkpt lat="45.47468" lon="5.97758">
        <ele>356</ele>
        <time>2014-07-05T09:56:59Z</time>
      </trkpt>
      <trkpt lat="45.47475" lon="5.97781">
        <ele>353</ele>
        <time>2014-07-05T09:57:05Z</time>
      </trkpt>
      <trkpt lat="45.47456" lon="5.97783">
        <ele>351</ele>
        <time>2014-07-05T09:57:10Z</time>
      </trkpt>
      <trkpt lat="45.47437" lon="5.97775">
        <ele>352</ele>
        <time>2014-07-05T09:57:13Z</time>
      </trkpt>
      <trkpt lat="45.47419" lon="5.97771">
        <ele>353</ele>
        <time>2014-07-05T09:57:16Z</time>
      </trkpt>
      <trkpt lat="45.47395" lon="5.97772">
        <ele>348</ele>
        <time>2014-07-05T09:57:19Z</time>
      </trkpt>
      <trkpt lat="45.47372" lon="5.9777">
        <ele>346</ele>
        <time>2014-07-05T09:57:22Z</time>
      </trkpt>
      <trkpt lat="45.47354" lon="5.97765">
        <ele>348</ele>
        <time>2014-07-05T09:57:25Z</time>
      </trkpt>
      <trkpt lat="45.47336" lon="5.9777">
        <ele>348</ele>
        <time>2014-07-05T09:57:28Z</time>
      </trkpt>
      <trkpt lat="45.47317" lon="5.9777">
        <ele>346</ele>
        <time>2014-07-05T09:57:31Z</time>
      </trkpt>
      <trkpt lat="45.47295" lon="5.97775">
        <ele>345</ele>
        <time>2014-07-05T09:57:34Z</time>
      </trkpt>
      <trkpt lat="45.4727" lon="5.97781">
        <ele>345</ele>
        <time>2014-07-05T09:57:37Z</time>
      </trkpt>
      <trkpt lat="45.47251" lon="5.97786">
        <ele>344</ele>
        <time>2014-07-05T09:57:39Z</time>
      </trkpt>
      <trkpt lat="45.47233" lon="5.9781">
        <ele>341</ele>
        <time>2014-07-05T09:57:42Z</time>
      </trkpt>
      <trkpt lat="45.47211" lon="5.97827">
        <ele>341</ele>
        <time>2014-07-05T09:57:46Z</time>
      </trkpt>
      <trkpt lat="45.47195" lon="5.97839">
        <ele>323</ele>
        <time>2014-07-05T09:57:48Z</time>
      </trkpt>
      <trkpt lat="45.47178" lon="5.97856">
        <ele>322</ele>
        <time>2014-07-05T09:57:51Z</time>
      </trkpt>
      <trkpt lat="45.47158" lon="5.97872">
        <ele>321</ele>
        <time>2014-07-05T09:57:54Z</time>
      </trkpt>
      <trkpt lat="45.47142" lon="5.97885">
        <ele>318</ele>
        <time>2014-07-05T09:57:57Z</time>
      </trkpt>
      <trkpt lat="45.47123" lon="5.97899">
        <ele>316</ele>
        <time>2014-07-05T09:58:00Z</time>
      </trkpt>
      <trkpt lat="45.47115" lon="5.97929">
        <ele>300</ele>
        <time>2014-07-05T09:58:04Z</time>
      </trkpt>
      <trkpt lat="45.47114" lon="5.97959">
        <ele>298</ele>
        <time>2014-07-05T09:58:07Z</time>
      </trkpt>
      <trkpt lat="45.47113" lon="5.97988">
        <ele>296</ele>
        <time>2014-07-05T09:58:10Z</time>
      </trkpt>
      <trkpt lat="45.47098" lon="5.98012">
        <ele>290</ele>
        <time>2014-07-05T09:58:14Z</time>
      </trkpt>
      <trkpt lat="45.4708" lon="5.98023">
        <ele>289</ele>
        <time>2014-07-05T09:58:17Z</time>
      </trkpt>
      <trkpt lat="45.47057" lon="5.98018">
        <ele>288</ele>
        <time>2014-07-05T09:58:20Z</time>
      </trkpt>
      <trkpt lat="45.47039" lon="5.98014">
        <ele>288</ele>
        <time>2014-07-05T09:58:24Z</time>
      </trkpt>
      <trkpt lat="45.47021" lon="5.98007">
        <ele>289</ele>
        <time>2014-07-05T09:58:30Z</time>
      </trkpt>
      <trkpt lat="45.47003" lon="5.98001">
        <ele>291</ele>
        <time>2014-07-05T09:58:35Z</time>
      </trkpt>
      <trkpt lat="45.46984" lon="5.97992">
        <ele>297</ele>
        <time>2014-07-05T09:58:40Z</time>
      </trkpt>
      <trkpt lat="45.46965" lon="5.97989">
        <ele>299</ele>
        <time>2014-07-05T09:58:45Z</time>
      </trkpt>
      <trkpt lat="45.46945" lon="5.97991">
        <ele>300</ele>
        <time>2014-07-05T09:58:51Z</time>
      </trkpt>
      <trkpt lat="45.46926" lon="5.97993">
        <ele>298</ele>
        <time>2014-07-05T09:58:56Z</time>
      </trkpt>
      <trkpt lat="45.4691" lon="5.98005">
        <ele>296</ele>
        <time>2014-07-05T09:59:24Z</time>
      </trkpt>
      <trkpt lat="45.46896" lon="5.98025">
        <ele>297</ele>
        <time>2014-07-05T09:59:39Z</time>
      </trkpt>
      <trkpt lat="45.46877" lon="5.98034">
        <ele>298</ele>
        <time>2014-07-05T09:59:46Z</time>
      </trkpt>
      <trkpt lat="45.4686" lon="5.98044">
        <ele>298</ele>
        <time>2014-07-05T09:59:52Z</time>
      </trkpt>
      <trkpt lat="45.46841" lon="5.98048">
        <ele>299</ele>
        <time>2014-07-05T09:59:59Z</time>
      </trkpt>
      <trkpt lat="45.46821" lon="5.98055">
        <ele>308</ele>
        <time>2014-07-05T10:00:08Z</time>
      </trkpt>
      <trkpt lat="45.46802" lon="5.98062">
        <ele>309</ele>
        <time>2014-07-05T10:00:17Z</time>
      </trkpt>
      <trkpt lat="45.46786" lon="5.98071">
        <ele>310</ele>
        <time>2014-07-05T10:00:25Z</time>
      </trkpt>
      <trkpt lat="45.46768" lon="5.98082">
        <ele>311</ele>
        <time>2014-07-05T10:00:32Z</time>
      </trkpt>
      <trkpt lat="45.46754" lon="5.98097">
        <ele>307</ele>
        <time>2014-07-05T10:00:39Z</time>
      </trkpt>
      <trkpt lat="45.46739" lon="5.98112">
        <ele>316</ele>
        <time>2014-07-05T10:00:46Z</time>
      </trkpt>
      <trkpt lat="45.46725" lon="5.98132">
        <ele>316</ele>
        <time>2014-07-05T10:00:54Z</time>
      </trkpt>
      <trkpt lat="45.4671" lon="5.98149">
        <ele>317</ele>
        <time>2014-07-05T10:01:01Z</time>
      </trkpt>
      <trkpt lat="45.4669" lon="5.98158">
        <ele>319</ele>
        <time>2014-07-05T10:01:09Z</time>
      </trkpt>
      <trkpt lat="45.46684" lon="5.98189">
        <ele>312</ele>
        <time>2014-07-05T10:01:16Z</time>
      </trkpt>
      <trkpt lat="45.46678" lon="5.98221">
        <ele>310</ele>
        <time>2014-07-05T10:01:20Z</time>
      </trkpt>
      <trkpt lat="45.46674" lon="5.98251">
        <ele>308</ele>
        <time>2014-07-05T10:01:23Z</time>
      </trkpt>
      <trkpt lat="45.46668" lon="5.98284">
        <ele>303</ele>
        <time>2014-07-05T10:01:26Z</time>
      </trkpt>
      <trkpt lat="45.46662" lon="5.98319">
        <ele>309</ele>
        <time>2014-07-05T10:01:29Z</time>
      </trkpt>
      <trkpt lat="45.46657" lon="5.98346">
        <ele>304</ele>
        <time>2014-07-05T10:01:31Z</time>
      </trkpt>
      <trkpt lat="45.46652" lon="5.98374">
        <ele>303</ele>
        <time>2014-07-05T10:01:33Z</time>
      </trkpt>
      <trkpt lat="45.46647" lon="5.98402">
        <ele>301</ele>
        <time>2014-07-05T10:01:35Z</time>
      </trkpt>
      <trkpt lat="45.46643" lon="5.98432">
        <ele>296</ele>
        <time>2014-07-05T10:01:37Z</time>
      </trkpt>
      <trkpt lat="45.46634" lon="5.9846">
        <ele>295</ele>
        <time>2014-07-05T10:01:39Z</time>
      </trkpt>
      <trkpt lat="45.46622" lon="5.98487">
        <ele>294</ele>
        <time>2014-07-05T10:01:41Z</time>
      </trkpt>
      <trkpt lat="45.46609" lon="5.98513">
        <ele>291</ele>
        <time>2014-07-05T10:01:43Z</time>
      </trkpt>
      <trkpt lat="45.46595" lon="5.98542">
        <ele>290</ele>
        <time>2014-07-05T10:01:45Z</time>
      </trkpt>
      <trkpt lat="45.46584" lon="5.98571">
        <ele>290</ele>
        <time>2014-07-05T10:01:47Z</time>
      </trkpt>
      <trkpt lat="45.46574" lon="5.98605">
        <ele>291</ele>
        <time>2014-07-05T10:01:50Z</time>
      </trkpt>
      <trkpt lat="45.46564" lon="5.98637">
        <ele>290</ele>
        <time>2014-07-05T10:01:53Z</time>
      </trkpt>
      <trkpt lat="45.4655" lon="5.98663">
        <ele>290</ele>
        <time>2014-07-05T10:01:56Z</time>
      </trkpt>
      <trkpt lat="45.46543" lon="5.98688">
        <ele>287</ele>
        <time>2014-07-05T10:01:59Z</time>
      </trkpt>
      <trkpt lat="45.46543" lon="5.98715">
        <ele>286</ele>
        <time>2014-07-05T10:02:02Z</time>
      </trkpt>
      <trkpt lat="45.46547" lon="5.98743">
        <ele>286</ele>
        <time>2014-07-05T10:02:05Z</time>
      </trkpt>
      <trkpt lat="45.46549" lon="5.98772">
        <ele>285</ele>
        <time>2014-07-05T10:02:09Z</time>
      </trkpt>
      <trkpt lat="45.46545" lon="5.98798">
        <ele>285</ele>
        <time>2014-07-05T10:02:13Z</time>
      </trkpt>
      <trkpt lat="45.46528" lon="5.98814">
        <ele>286</ele>
        <time>2014-07-05T10:02:17Z</time>
      </trkpt>
      <trkpt lat="45.46506" lon="5.98823">
        <ele>287</ele>
        <time>2014-07-05T10:02:22Z</time>
      </trkpt>
      <trkpt lat="45.46487" lon="5.98832">
        <ele>288</ele>
        <time>2014-07-05T10:02:26Z</time>
      </trkpt>
      <trkpt lat="45.46466" lon="5.98845">
        <ele>288</ele>
        <time>2014-07-05T10:02:31Z</time>
      </trkpt>
      <trkpt lat="45.46447" lon="5.98859">
        <ele>288</ele>
        <time>2014-07-05T10:02:36Z</time>
      </trkpt>
      <trkpt lat="45.46428" lon="5.98872">
        <ele>288</ele>
        <time>2014-07-05T10:02:41Z</time>
      </trkpt>
      <trkpt lat="45.46411" lon="5.98883">
        <ele>289</ele>
        <time>2014-07-05T10:02:45Z</time>
      </trkpt>
      <trkpt lat="45.46394" lon="5.98898">
        <ele>289</ele>
        <time>2014-07-05T10:02:50Z</time>
      </trkpt>
      <trkpt lat="45.46386" lon="5.98925">
        <ele>289</ele>
        <time>2014-07-05T10:02:56Z</time>
      </trkpt>
      <trkpt lat="45.46388" lon="5.98952">
        <ele>289</ele>
        <time>2014-07-05T10:03:00Z</time>
      </trkpt>
      <trkpt lat="45.46394" lon="5.98979">
        <ele>289</ele>
        <time>2014-07-05T10:03:04Z</time>
      </trkpt>
      <trkpt lat="45.46399" lon="5.99008">
        <ele>289</ele>
        <time>2014-07-05T10:03:09Z</time>
      </trkpt>
      <trkpt lat="45.46377" lon="5.99018">
        <ele>289</ele>
        <time>2014-07-05T10:03:15Z</time>
      </trkpt>
      <trkpt lat="45.46359" lon="5.99012">
        <ele>290</ele>
        <time>2014-07-05T10:03:19Z</time>
      </trkpt>
      <trkpt lat="45.46339" lon="5.99011">
        <ele>290</ele>
        <time>2014-07-05T10:03:23Z</time>
      </trkpt>
      <trkpt lat="45.46317" lon="5.99009">
        <ele>291</ele>
        <time>2014-07-05T10:03:27Z</time>
      </trkpt>
      <trkpt lat="45.46298" lon="5.99008">
        <ele>291</ele>
        <time>2014-07-05T10:03:31Z</time>
      </trkpt>
      <trkpt lat="45.46278" lon="5.98999">
        <ele>291</ele>
        <time>2014-07-05T10:03:36Z</time>
      </trkpt>
      <trkpt lat="45.4626" lon="5.98995">
        <ele>292</ele>
        <time>2014-07-05T10:03:40Z</time>
      </trkpt>
      <trkpt lat="45.46241" lon="5.98984">
        <ele>292</ele>
        <time>2014-07-05T10:03:45Z</time>
      </trkpt>
      <trkpt lat="45.46223" lon="5.98976">
        <ele>293</ele>
        <time>2014-07-05T10:03:49Z</time>
      </trkpt>
      <trkpt lat="45.46204" lon="5.9897">
        <ele>293</ele>
        <time>2014-07-05T10:03:54Z</time>
      </trkpt>
      <trkpt lat="45.46184" lon="5.98983">
        <ele>293</ele>
        <time>2014-07-05T10:04:00Z</time>
      </trkpt>
      <trkpt lat="45.46166" lon="5.98997">
        <ele>292</ele>
        <time>2014-07-05T10:04:05Z</time>
      </trkpt>
      <trkpt lat="45.46146" lon="5.99008">
        <ele>294</ele>
        <time>2014-07-05T10:04:10Z</time>
      </trkpt>
      <trkpt lat="45.46127" lon="5.99013">
        <ele>294</ele>
        <time>2014-07-05T10:04:15Z</time>
      </trkpt>
      <trkpt lat="45.46107" lon="5.9902">
        <ele>295</ele>
        <time>2014-07-05T10:04:22Z</time>
      </trkpt>
      <trkpt lat="45.4609" lon="5.99025">
        <ele>295</ele>
        <time>2014-07-05T10:04:29Z</time>
      </trkpt>
      <trkpt lat="45.4607" lon="5.99029">
        <ele>298</ele>
        <time>2014-07-05T10:04:36Z</time>
      </trkpt>
      <trkpt lat="45.46051" lon="5.99032">
        <ele>298</ele>
        <time>2014-07-05T10:04:43Z</time>
      </trkpt>
      <trkpt lat="45.46031" lon="5.99037">
        <ele>299</ele>
        <time>2014-07-05T10:04:50Z</time>
      </trkpt>
      <trkpt lat="45.46012" lon="5.9904">
        <ele>299</ele>
        <time>2014-07-05T10:04:56Z</time>
      </trkpt>
      <trkpt lat="45.45993" lon="5.99044">
        <ele>302</ele>
        <time>2014-07-05T10:05:02Z</time>
      </trkpt>
      <trkpt lat="45.45972" lon="5.99047">
        <ele>302</ele>
        <time>2014-07-05T10:05:08Z</time>
      </trkpt>
      <trkpt lat="45.45953" lon="5.9905">
        <ele>303</ele>
        <time>2014-07-05T10:05:14Z</time>
      </trkpt>
      <trkpt lat="45.45935" lon="5.99051">
        <ele>303</ele>
        <time>2014-07-05T10:05:20Z</time>
      </trkpt>
      <trkpt lat="45.45916" lon="5.99053">
        <ele>306</ele>
        <time>2014-07-05T10:05:26Z</time>
      </trkpt>
      <trkpt lat="45.45898" lon="5.99057">
        <ele>306</ele>
        <time>2014-07-05T10:05:32Z</time>
      </trkpt>
      <trkpt lat="45.45877" lon="5.99065">
        <ele>307</ele>
        <time>2014-07-05T10:05:39Z</time>
      </trkpt>
      <trkpt lat="45.45858" lon="5.99073">
        <ele>308</ele>
        <time>2014-07-05T10:05:45Z</time>
      </trkpt>
      <trkpt lat="45.45841" lon="5.99079">
        <ele>308</ele>
        <time>2014-07-05T10:05:51Z</time>
      </trkpt>
      <trkpt lat="45.45821" lon="5.99085">
        <ele>309</ele>
        <time>2014-07-05T10:05:57Z</time>
      </trkpt>
      <trkpt lat="45.45801" lon="5.99089">
        <ele>310</ele>
        <time>2014-07-05T10:06:05Z</time>
      </trkpt>
      <trkpt lat="45.45782" lon="5.99093">
        <ele>311</ele>
        <time>2014-07-05T10:06:12Z</time>
      </trkpt>
      <trkpt lat="45.45763" lon="5.99095">
        <ele>312</ele>
        <time>2014-07-05T10:06:19Z</time>
      </trkpt>
      <trkpt lat="45.45745" lon="5.99097">
        <ele>314</ele>
        <time>2014-07-05T10:06:26Z</time>
      </trkpt>
      <trkpt lat="45.45724" lon="5.99101">
        <ele>314</ele>
        <time>2014-07-05T10:06:34Z</time>
      </trkpt>
      <trkpt lat="45.45706" lon="5.99106">
        <ele>315</ele>
        <time>2014-07-05T10:06:41Z</time>
      </trkpt>
      <trkpt lat="45.45686" lon="5.99112">
        <ele>315</ele>
        <time>2014-07-05T10:06:48Z</time>
      </trkpt>
      <trkpt lat="45.45666" lon="5.99118">
        <ele>318</ele>
        <time>2014-07-05T10:06:54Z</time>
      </trkpt>
      <trkpt lat="45.45646" lon="5.99124">
        <ele>318</ele>
        <time>2014-07-05T10:07:01Z</time>
      </trkpt>
      <trkpt lat="45.45627" lon="5.99129">
        <ele>318</ele>
        <time>2014-07-05T10:07:07Z</time>
      </trkpt>
      <trkpt lat="45.45607" lon="5.99134">
        <ele>318</ele>
        <time>2014-07-05T10:07:13Z</time>
      </trkpt>
      <trkpt lat="45.45589" lon="5.99138">
        <ele>318</ele>
        <time>2014-07-05T10:07:18Z</time>
      </trkpt>
      <trkpt lat="45.45567" lon="5.99142">
        <ele>322</ele>
        <time>2014-07-05T10:07:24Z</time>
      </trkpt>
      <trkpt lat="45.45549" lon="5.99147">
        <ele>323</ele>
        <time>2014-07-05T10:07:29Z</time>
      </trkpt>
      <trkpt lat="45.4553" lon="5.99153">
        <ele>324</ele>
        <time>2014-07-05T10:07:36Z</time>
      </trkpt>
      <trkpt lat="45.45512" lon="5.99155">
        <ele>325</ele>
        <time>2014-07-05T10:07:42Z</time>
      </trkpt>
      <trkpt lat="45.45492" lon="5.9916">
        <ele>327</ele>
        <time>2014-07-05T10:07:48Z</time>
      </trkpt>
      <trkpt lat="45.45473" lon="5.99164">
        <ele>328</ele>
        <time>2014-07-05T10:07:54Z</time>
      </trkpt>
      <trkpt lat="45.45453" lon="5.99167">
        <ele>325</ele>
        <time>2014-07-05T10:08:00Z</time>
      </trkpt>
      <trkpt lat="45.45433" lon="5.99172">
        <ele>325</ele>
        <time>2014-07-05T10:08:06Z</time>
      </trkpt>
      <trkpt lat="45.45415" lon="5.99178">
        <ele>327</ele>
        <time>2014-07-05T10:08:12Z</time>
      </trkpt>
      <trkpt lat="45.45397" lon="5.9918">
        <ele>326</ele>
        <time>2014-07-05T10:08:17Z</time>
      </trkpt>
      <trkpt lat="45.45378" lon="5.99185">
        <ele>327</ele>
        <time>2014-07-05T10:08:22Z</time>
      </trkpt>
      <trkpt lat="45.45361" lon="5.99189">
        <ele>327</ele>
        <time>2014-07-05T10:08:27Z</time>
      </trkpt>
      <trkpt lat="45.45341" lon="5.99193">
        <ele>328</ele>
        <time>2014-07-05T10:08:32Z</time>
      </trkpt>
      <trkpt lat="45.45321" lon="5.99197">
        <ele>329</ele>
        <time>2014-07-05T10:08:37Z</time>
      </trkpt>
      <trkpt lat="45.45303" lon="5.99201">
        <ele>329</ele>
        <time>2014-07-05T10:08:42Z</time>
      </trkpt>
      <trkpt lat="45.45281" lon="5.99205">
        <ele>328</ele>
        <time>2014-07-05T10:08:47Z</time>
      </trkpt>
      <trkpt lat="45.45261" lon="5.99208">
        <ele>328</ele>
        <time>2014-07-05T10:08:51Z</time>
      </trkpt>
      <trkpt lat="45.45242" lon="5.99213">
        <ele>330</ele>
        <time>2014-07-05T10:08:55Z</time>
      </trkpt>
      <trkpt lat="45.45224" lon="5.99217">
        <ele>330</ele>
        <time>2014-07-05T10:08:59Z</time>
      </trkpt>
      <trkpt lat="45.45205" lon="5.99222">
        <ele>331</ele>
        <time>2014-07-05T10:09:03Z</time>
      </trkpt>
      <trkpt lat="45.45183" lon="5.99228">
        <ele>331</ele>
        <time>2014-07-05T10:09:08Z</time>
      </trkpt>
      <trkpt lat="45.45163" lon="5.9923">
        <ele>332</ele>
        <time>2014-07-05T10:09:12Z</time>
      </trkpt>
      <trkpt lat="45.45142" lon="5.99233">
        <ele>333</ele>
        <time>2014-07-05T10:09:17Z</time>
      </trkpt>
      <trkpt lat="45.45121" lon="5.99236">
        <ele>334</ele>
        <time>2014-07-05T10:09:22Z</time>
      </trkpt>
      <trkpt lat="45.45101" lon="5.99237">
        <ele>334</ele>
        <time>2014-07-05T10:09:28Z</time>
      </trkpt>
      <trkpt lat="45.45081" lon="5.99242">
        <ele>334</ele>
        <time>2014-07-05T10:09:34Z</time>
      </trkpt>
      <trkpt lat="45.45063" lon="5.99247">
        <ele>335</ele>
        <time>2014-07-05T10:09:38Z</time>
      </trkpt>
      <trkpt lat="45.45044" lon="5.99251">
        <ele>332</ele>
        <time>2014-07-05T10:09:43Z</time>
      </trkpt>
      <trkpt lat="45.45025" lon="5.9925">
        <ele>333</ele>
        <time>2014-07-05T10:09:49Z</time>
      </trkpt>
      <trkpt lat="45.45007" lon="5.99246">
        <ele>336</ele>
        <time>2014-07-05T10:09:55Z</time>
      </trkpt>
      <trkpt lat="45.44988" lon="5.9924">
        <ele>337</ele>
        <time>2014-07-05T10:10:02Z</time>
      </trkpt>
      <trkpt lat="45.44969" lon="5.99228">
        <ele>337</ele>
        <time>2014-07-05T10:10:07Z</time>
      </trkpt>
      <trkpt lat="45.44951" lon="5.99216">
        <ele>338</ele>
        <time>2014-07-05T10:10:12Z</time>
      </trkpt>
      <trkpt lat="45.44935" lon="5.99202">
        <ele>338</ele>
        <time>2014-07-05T10:10:17Z</time>
      </trkpt>
      <trkpt lat="45.44919" lon="5.99186">
        <ele>339</ele>
        <time>2014-07-05T10:10:22Z</time>
      </trkpt>
      <trkpt lat="45.44903" lon="5.99168">
        <ele>338</ele>
        <time>2014-07-05T10:10:26Z</time>
      </trkpt>
      <trkpt lat="45.44886" lon="5.99149">
        <ele>339</ele>
        <time>2014-07-05T10:10:30Z</time>
      </trkpt>
      <trkpt lat="45.44869" lon="5.9913">
        <ele>339</ele>
        <time>2014-07-05T10:10:34Z</time>
      </trkpt>
      <trkpt lat="45.44853" lon="5.99113">
        <ele>339</ele>
        <time>2014-07-05T10:10:38Z</time>
      </trkpt>
      <trkpt lat="45.44837" lon="5.99095">
        <ele>338</ele>
        <time>2014-07-05T10:10:42Z</time>
      </trkpt>
      <trkpt lat="45.4482" lon="5.99078">
        <ele>338</ele>
        <time>2014-07-05T10:10:46Z</time>
      </trkpt>
      <trkpt lat="45.44804" lon="5.99063">
        <ele>338</ele>
        <time>2014-07-05T10:10:50Z</time>
      </trkpt>
      <trkpt lat="45.44789" lon="5.99047">
        <ele>338</ele>
        <time>2014-07-05T10:10:54Z</time>
      </trkpt>
      <trkpt lat="45.44773" lon="5.99028">
        <ele>338</ele>
        <time>2014-07-05T10:10:58Z</time>
      </trkpt>
      <trkpt lat="45.44758" lon="5.99009">
        <ele>337</ele>
        <time>2014-07-05T10:11:02Z</time>
      </trkpt>
      <trkpt lat="45.44741" lon="5.9899">
        <ele>336</ele>
        <time>2014-07-05T10:11:06Z</time>
      </trkpt>
      <trkpt lat="45.44723" lon="5.9897">
        <ele>336</ele>
        <time>2014-07-05T10:11:10Z</time>
      </trkpt>
      <trkpt lat="45.44705" lon="5.9895">
        <ele>336</ele>
        <time>2014-07-05T10:11:14Z</time>
      </trkpt>
      <trkpt lat="45.44689" lon="5.98933">
        <ele>335</ele>
        <time>2014-07-05T10:11:18Z</time>
      </trkpt>
      <trkpt lat="45.44674" lon="5.98916">
        <ele>335</ele>
        <time>2014-07-05T10:11:22Z</time>
      </trkpt>
      <trkpt lat="45.44658" lon="5.98899">
        <ele>335</ele>
        <time>2014-07-05T10:11:26Z</time>
      </trkpt>
      <trkpt lat="45.44642" lon="5.9888">
        <ele>335</ele>
        <time>2014-07-05T10:11:30Z</time>
      </trkpt>
      <trkpt lat="45.44627" lon="5.98864">
        <ele>335</ele>
        <time>2014-07-05T10:11:34Z</time>
      </trkpt>
      <trkpt lat="45.44612" lon="5.98848">
        <ele>335</ele>
        <time>2014-07-05T10:11:38Z</time>
      </trkpt>
      <trkpt lat="45.44597" lon="5.98831">
        <ele>337</ele>
        <time>2014-07-05T10:11:42Z</time>
      </trkpt>
      <trkpt lat="45.4458" lon="5.98812">
        <ele>335</ele>
        <time>2014-07-05T10:11:46Z</time>
      </trkpt>
      <trkpt lat="45.44563" lon="5.98793">
        <ele>336</ele>
        <time>2014-07-05T10:11:50Z</time>
      </trkpt>
      <trkpt lat="45.44547" lon="5.98775">
        <ele>337</ele>
        <time>2014-07-05T10:11:54Z</time>
      </trkpt>
      <trkpt lat="45.4453" lon="5.98757">
        <ele>337</ele>
        <time>2014-07-05T10:11:58Z</time>
      </trkpt>
      <trkpt lat="45.44515" lon="5.9874">
        <ele>339</ele>
        <time>2014-07-05T10:12:02Z</time>
      </trkpt>
      <trkpt lat="45.44499" lon="5.98723">
        <ele>337</ele>
        <time>2014-07-05T10:12:06Z</time>
      </trkpt>
      <trkpt lat="45.44482" lon="5.98703">
        <ele>338</ele>
        <time>2014-07-05T10:12:10Z</time>
      </trkpt>
      <trkpt lat="45.44465" lon="5.98685">
        <ele>338</ele>
        <time>2014-07-05T10:12:14Z</time>
      </trkpt>
      <trkpt lat="45.44448" lon="5.98665">
        <ele>340</ele>
        <time>2014-07-05T10:12:18Z</time>
      </trkpt>
      <trkpt lat="45.44431" lon="5.98646">
        <ele>339</ele>
        <time>2014-07-05T10:12:22Z</time>
      </trkpt>
      <trkpt lat="45.44413" lon="5.98626">
        <ele>338</ele>
        <time>2014-07-05T10:12:26Z</time>
      </trkpt>
      <trkpt lat="45.44396" lon="5.98607">
        <ele>339</ele>
        <time>2014-07-05T10:12:30Z</time>
      </trkpt>
      <trkpt lat="45.44379" lon="5.98593">
        <ele>339</ele>
        <time>2014-07-05T10:12:34Z</time>
      </trkpt>
      <trkpt lat="45.44362" lon="5.98582">
        <ele>341</ele>
        <time>2014-07-05T10:12:38Z</time>
      </trkpt>
      <trkpt lat="45.44342" lon="5.98573">
        <ele>341</ele>
        <time>2014-07-05T10:12:43Z</time>
      </trkpt>
      <trkpt lat="45.44323" lon="5.98566">
        <ele>340</ele>
        <time>2014-07-05T10:12:47Z</time>
      </trkpt>
      <trkpt lat="45.44301" lon="5.98559">
        <ele>340</ele>
        <time>2014-07-05T10:12:51Z</time>
      </trkpt>
      <trkpt lat="45.4428" lon="5.98551">
        <ele>339</ele>
        <time>2014-07-05T10:12:55Z</time>
      </trkpt>
      <trkpt lat="45.44259" lon="5.98544">
        <ele>339</ele>
        <time>2014-07-05T10:12:59Z</time>
      </trkpt>
      <trkpt lat="45.44237" lon="5.98537">
        <ele>338</ele>
        <time>2014-07-05T10:13:03Z</time>
      </trkpt>
      <trkpt lat="45.44215" lon="5.9853">
        <ele>338</ele>
        <time>2014-07-05T10:13:07Z</time>
      </trkpt>
      <trkpt lat="45.44194" lon="5.98523">
        <ele>338</ele>
        <time>2014-07-05T10:13:11Z</time>
      </trkpt>
      <trkpt lat="45.44176" lon="5.98518">
        <ele>338</ele>
        <time>2014-07-05T10:13:15Z</time>
      </trkpt>
      <trkpt lat="45.44158" lon="5.9851">
        <ele>337</ele>
        <time>2014-07-05T10:13:19Z</time>
      </trkpt>
      <trkpt lat="45.44141" lon="5.98501">
        <ele>337</ele>
        <time>2014-07-05T10:13:23Z</time>
      </trkpt>
      <trkpt lat="45.4412" lon="5.98495">
        <ele>339</ele>
        <time>2014-07-05T10:13:28Z</time>
      </trkpt>
      <trkpt lat="45.44098" lon="5.98491">
        <ele>338</ele>
        <time>2014-07-05T10:13:33Z</time>
      </trkpt>
      <trkpt lat="45.44078" lon="5.98485">
        <ele>338</ele>
        <time>2014-07-05T10:13:37Z</time>
      </trkpt>
      <trkpt lat="45.44055" lon="5.98476">
        <ele>339</ele>
        <time>2014-07-05T10:13:41Z</time>
      </trkpt>
      <trkpt lat="45.44035" lon="5.98469">
        <ele>339</ele>
        <time>2014-07-05T10:13:45Z</time>
      </trkpt>
      <trkpt lat="45.44014" lon="5.98462">
        <ele>339</ele>
        <time>2014-07-05T10:13:49Z</time>
      </trkpt>
      <trkpt lat="45.43996" lon="5.98456">
        <ele>340</ele>
        <time>2014-07-05T10:13:53Z</time>
      </trkpt>
      <trkpt lat="45.43978" lon="5.98448">
        <ele>340</ele>
        <time>2014-07-05T10:13:57Z</time>
      </trkpt>
      <trkpt lat="45.43957" lon="5.98441">
        <ele>341</ele>
        <time>2014-07-05T10:14:01Z</time>
      </trkpt>
      <trkpt lat="45.4394" lon="5.98434">
        <ele>341</ele>
        <time>2014-07-05T10:14:05Z</time>
      </trkpt>
      <trkpt lat="45.43919" lon="5.98425">
        <ele>342</ele>
        <time>2014-07-05T10:14:10Z</time>
      </trkpt>
      <trkpt lat="45.43901" lon="5.98418">
        <ele>342</ele>
        <time>2014-07-05T10:14:14Z</time>
      </trkpt>
      <trkpt lat="45.4388" lon="5.98412">
        <ele>344</ele>
        <time>2014-07-05T10:14:19Z</time>
      </trkpt>
      <trkpt lat="45.43861" lon="5.98407">
        <ele>344</ele>
        <time>2014-07-05T10:14:23Z</time>
      </trkpt>
      <trkpt lat="45.43843" lon="5.98401">
        <ele>344</ele>
        <time>2014-07-05T10:14:27Z</time>
      </trkpt>
      <trkpt lat="45.43827" lon="5.98418">
        <ele>343</ele>
        <time>2014-07-05T10:14:33Z</time>
      </trkpt>
      <trkpt lat="45.43828" lon="5.98452">
        <ele>343</ele>
        <time>2014-07-05T10:14:37Z</time>
      </trkpt>
      <trkpt lat="45.43822" lon="5.98484">
        <ele>342</ele>
        <time>2014-07-05T10:14:41Z</time>
      </trkpt>
      <trkpt lat="45.43817" lon="5.98515">
        <ele>345</ele>
        <time>2014-07-05T10:14:45Z</time>
      </trkpt>
      <trkpt lat="45.43815" lon="5.98542">
        <ele>346</ele>
        <time>2014-07-05T10:14:49Z</time>
      </trkpt>
      <trkpt lat="45.43816" lon="5.98568">
        <ele>347</ele>
        <time>2014-07-05T10:14:54Z</time>
      </trkpt>
      <trkpt lat="45.43815" lon="5.98595">
        <ele>351</ele>
        <time>2014-07-05T10:15:00Z</time>
      </trkpt>
      <trkpt lat="45.43796" lon="5.98603">
        <ele>353</ele>
        <time>2014-07-05T10:15:09Z</time>
      </trkpt>
      <trkpt lat="45.43776" lon="5.98597">
        <ele>355</ele>
        <time>2014-07-05T10:15:16Z</time>
      </trkpt>
      <trkpt lat="45.43756" lon="5.98594">
        <ele>356</ele>
        <time>2014-07-05T10:15:23Z</time>
      </trkpt>
      <trkpt lat="45.43774" lon="5.98601">
        <ele>355</ele>
        <time>2014-07-05T10:15:33Z</time>
      </trkpt>
      <trkpt lat="45.4379" lon="5.98616">
        <ele>354</ele>
        <time>2014-07-05T10:15:38Z</time>
      </trkpt>
      <trkpt lat="45.43797" lon="5.98643">
        <ele>354</ele>
        <time>2014-07-05T10:15:45Z</time>
      </trkpt>
      <trkpt lat="45.438" lon="5.98669">
        <ele>356</ele>
        <time>2014-07-05T10:15:50Z</time>
      </trkpt>
      <trkpt lat="45.43805" lon="5.98694">
        <ele>357</ele>
        <time>2014-07-05T10:15:59Z</time>
      </trkpt>
      <trkpt lat="45.43818" lon="5.98713">
        <ele>356</ele>
        <time>2014-07-05T10:16:05Z</time>
      </trkpt>
      <trkpt lat="45.43831" lon="5.98733">
        <ele>356</ele>
        <time>2014-07-05T10:16:10Z</time>
      </trkpt>
      <trkpt lat="45.43842" lon="5.98757">
        <ele>353</ele>
        <time>2014-07-05T10:16:15Z</time>
      </trkpt>
      <trkpt lat="45.43853" lon="5.9878">
        <ele>351</ele>
        <time>2014-07-05T10:16:20Z</time>
      </trkpt>
      <trkpt lat="45.43864" lon="5.98801">
        <ele>350</ele>
        <time>2014-07-05T10:16:25Z</time>
      </trkpt>
      <trkpt lat="45.43868" lon="5.98827">
        <ele>350</ele>
        <time>2014-07-05T10:16:31Z</time>
      </trkpt>
      <trkpt lat="45.43879" lon="5.98854">
        <ele>349</ele>
        <time>2014-07-05T10:16:39Z</time>
      </trkpt>
      <trkpt lat="45.43893" lon="5.98871">
        <ele>348</ele>
        <time>2014-07-05T10:16:45Z</time>
      </trkpt>
      <trkpt lat="45.43908" lon="5.98885">
        <ele>347</ele>
        <time>2014-07-05T10:16:50Z</time>
      </trkpt>
      <trkpt lat="45.43899" lon="5.9891">
        <ele>348</ele>
        <time>2014-07-05T10:16:56Z</time>
      </trkpt>
      <trkpt lat="45.43885" lon="5.98927">
        <ele>346</ele>
        <time>2014-07-05T10:17:01Z</time>
      </trkpt>
      <trkpt lat="45.4387" lon="5.98946">
        <ele>346</ele>
        <time>2014-07-05T10:17:06Z</time>
      </trkpt>
      <trkpt lat="45.43851" lon="5.98961">
        <ele>346</ele>
        <time>2014-07-05T10:17:11Z</time>
      </trkpt>
      <trkpt lat="45.43832" lon="5.98967">
        <ele>346</ele>
        <time>2014-07-05T10:17:15Z</time>
      </trkpt>
      <trkpt lat="45.43811" lon="5.9897">
        <ele>345</ele>
        <time>2014-07-05T10:17:19Z</time>
      </trkpt>
      <trkpt lat="45.43793" lon="5.98968">
        <ele>345</ele>
        <time>2014-07-05T10:17:23Z</time>
      </trkpt>
      <trkpt lat="45.43772" lon="5.98973">
        <ele>345</ele>
        <time>2014-07-05T10:17:28Z</time>
      </trkpt>
      <trkpt lat="45.43752" lon="5.98981">
        <ele>344</ele>
        <time>2014-07-05T10:17:33Z</time>
      </trkpt>
      <trkpt lat="45.43735" lon="5.98996">
        <ele>342</ele>
        <time>2014-07-05T10:17:37Z</time>
      </trkpt>
      <trkpt lat="45.43717" lon="5.98992">
        <ele>342</ele>
        <time>2014-07-05T10:17:41Z</time>
      </trkpt>
      <trkpt lat="45.43696" lon="5.98982">
        <ele>341</ele>
        <time>2014-07-05T10:17:46Z</time>
      </trkpt>
      <trkpt lat="45.43681" lon="5.98966">
        <ele>342</ele>
        <time>2014-07-05T10:17:54Z</time>
      </trkpt>
      <trkpt lat="45.43663" lon="5.98953">
        <ele>342</ele>
        <time>2014-07-05T10:18:05Z</time>
      </trkpt>
      <trkpt lat="45.43645" lon="5.98941">
        <ele>342</ele>
        <time>2014-07-05T10:18:13Z</time>
      </trkpt>
      <trkpt lat="45.43626" lon="5.98929">
        <ele>342</ele>
        <time>2014-07-05T10:18:22Z</time>
      </trkpt>
      <trkpt lat="45.43608" lon="5.98917">
        <ele>351</ele>
        <time>2014-07-05T10:18:29Z</time>
      </trkpt>
      <trkpt lat="45.43589" lon="5.98908">
        <ele>349</ele>
        <time>2014-07-05T10:18:36Z</time>
      </trkpt>
      <trkpt lat="45.43568" lon="5.98919">
        <ele>341</ele>
        <time>2014-07-05T10:18:42Z</time>
      </trkpt>
      <trkpt lat="45.43549" lon="5.98915">
        <ele>347</ele>
        <time>2014-07-05T10:18:46Z</time>
      </trkpt>
      <trkpt lat="45.43531" lon="5.98903">
        <ele>346</ele>
        <time>2014-07-05T10:18:52Z</time>
      </trkpt>
      <trkpt lat="45.4351" lon="5.98896">
        <ele>344</ele>
        <time>2014-07-05T10:18:59Z</time>
      </trkpt>
      <trkpt lat="45.43493" lon="5.98906">
        <ele>338</ele>
        <time>2014-07-05T10:19:08Z</time>
      </trkpt>
      <trkpt lat="45.43473" lon="5.989">
        <ele>338</ele>
        <time>2014-07-05T10:19:15Z</time>
      </trkpt>
      <trkpt lat="45.43458" lon="5.98884">
        <ele>339</ele>
        <time>2014-07-05T10:19:22Z</time>
      </trkpt>
      <trkpt lat="45.43447" lon="5.98863">
        <ele>340</ele>
        <time>2014-07-05T10:19:29Z</time>
      </trkpt>
      <trkpt lat="45.43431" lon="5.98849">
        <ele>340</ele>
        <time>2014-07-05T10:19:37Z</time>
      </trkpt>
      <trkpt lat="45.43413" lon="5.9884">
        <ele>337</ele>
        <time>2014-07-05T10:19:44Z</time>
      </trkpt>
      <trkpt lat="45.43392" lon="5.98826">
        <ele>340</ele>
        <time>2014-07-05T10:19:49Z</time>
      </trkpt>
      <trkpt lat="45.43378" lon="5.9881">
        <ele>339</ele>
        <time>2014-07-05T10:19:52Z</time>
      </trkpt>
      <trkpt lat="45.43368" lon="5.98786">
        <ele>340</ele>
        <time>2014-07-05T10:19:56Z</time>
      </trkpt>
      <trkpt lat="45.43356" lon="5.98764">
        <ele>340</ele>
        <time>2014-07-05T10:20:03Z</time>
      </trkpt>
      <trkpt lat="45.43342" lon="5.98743">
        <ele>344</ele>
        <time>2014-07-05T10:20:11Z</time>
      </trkpt>
      <trkpt lat="45.43325" lon="5.98728">
        <ele>339</ele>
        <time>2014-07-05T10:20:19Z</time>
      </trkpt>
      <trkpt lat="45.43308" lon="5.98717">
        <ele>339</ele>
        <time>2014-07-05T10:20:26Z</time>
      </trkpt>
      <trkpt lat="45.43291" lon="5.98704">
        <ele>339</ele>
        <time>2014-07-05T10:20:33Z</time>
      </trkpt>
      <trkpt lat="45.43275" lon="5.98689">
        <ele>339</ele>
        <time>2014-07-05T10:20:40Z</time>
      </trkpt>
      <trkpt lat="45.43259" lon="5.98671">
        <ele>338</ele>
        <time>2014-07-05T10:20:46Z</time>
      </trkpt>
      <trkpt lat="45.43243" lon="5.98654">
        <ele>337</ele>
        <time>2014-07-05T10:20:52Z</time>
      </trkpt>
      <trkpt lat="45.43227" lon="5.98638">
        <ele>336</ele>
        <time>2014-07-05T10:20:59Z</time>
      </trkpt>
      <trkpt lat="45.43213" lon="5.9862">
        <ele>335</ele>
        <time>2014-07-05T10:21:06Z</time>
      </trkpt>
      <trkpt lat="45.43205" lon="5.98594">
        <ele>336</ele>
        <time>2014-07-05T10:21:10Z</time>
      </trkpt>
      <trkpt lat="45.432" lon="5.98568">
        <ele>336</ele>
        <time>2014-07-05T10:21:14Z</time>
      </trkpt>
      <trkpt lat="45.43183" lon="5.98553">
        <ele>336</ele>
        <time>2014-07-05T10:21:18Z</time>
      </trkpt>
      <trkpt lat="45.43163" lon="5.98539">
        <ele>333</ele>
        <time>2014-07-05T10:21:22Z</time>
      </trkpt>
      <trkpt lat="45.43144" lon="5.98528">
        <ele>333</ele>
        <time>2014-07-05T10:21:27Z</time>
      </trkpt>
      <trkpt lat="45.43125" lon="5.98516">
        <ele>333</ele>
        <time>2014-07-05T10:21:32Z</time>
      </trkpt>
      <trkpt lat="45.43106" lon="5.98506">
        <ele>333</ele>
        <time>2014-07-05T10:21:37Z</time>
      </trkpt>
      <trkpt lat="45.43088" lon="5.98494">
        <ele>333</ele>
        <time>2014-07-05T10:21:43Z</time>
      </trkpt>
      <trkpt lat="45.43069" lon="5.98482">
        <ele>333</ele>
        <time>2014-07-05T10:21:48Z</time>
      </trkpt>
      <trkpt lat="45.4305" lon="5.9847">
        <ele>333</ele>
        <time>2014-07-05T10:21:53Z</time>
      </trkpt>
      <trkpt lat="45.43031" lon="5.9846">
        <ele>333</ele>
        <time>2014-07-05T10:21:58Z</time>
      </trkpt>
      <trkpt lat="45.43013" lon="5.98447">
        <ele>333</ele>
        <time>2014-07-05T10:22:03Z</time>
      </trkpt>
      <trkpt lat="45.42995" lon="5.98432">
        <ele>332</ele>
        <time>2014-07-05T10:22:08Z</time>
      </trkpt>
      <trkpt lat="45.4299" lon="5.98405">
        <ele>332</ele>
        <time>2014-07-05T10:22:24Z</time>
      </trkpt>
      <trkpt lat="45.43003" lon="5.98382">
        <ele>332</ele>
        <time>2014-07-05T10:22:30Z</time>
      </trkpt>
      <trkpt lat="45.43015" lon="5.98356">
        <ele>331</ele>
        <time>2014-07-05T10:22:36Z</time>
      </trkpt>
      <trkpt lat="45.43004" lon="5.98331">
        <ele>330</ele>
        <time>2014-07-05T10:22:42Z</time>
      </trkpt>
      <trkpt lat="45.42985" lon="5.98318">
        <ele>330</ele>
        <time>2014-07-05T10:22:47Z</time>
      </trkpt>
      <trkpt lat="45.42968" lon="5.98306">
        <ele>330</ele>
        <time>2014-07-05T10:22:51Z</time>
      </trkpt>
      <trkpt lat="45.42948" lon="5.98314">
        <ele>330</ele>
        <time>2014-07-05T10:22:56Z</time>
      </trkpt>
      <trkpt lat="45.42934" lon="5.98336">
        <ele>330</ele>
        <time>2014-07-05T10:23:02Z</time>
      </trkpt>
      <trkpt lat="45.42924" lon="5.9836">
        <ele>330</ele>
        <time>2014-07-05T10:23:08Z</time>
      </trkpt>
      <trkpt lat="45.42915" lon="5.98385">
        <ele>329</ele>
        <time>2014-07-05T10:23:14Z</time>
      </trkpt>
      <trkpt lat="45.42908" lon="5.9841">
        <ele>329</ele>
        <time>2014-07-05T10:23:28Z</time>
      </trkpt>
      <trkpt lat="45.42918" lon="5.98432">
        <ele>330</ele>
        <time>2014-07-05T10:23:40Z</time>
      </trkpt>
    </trkseg>
  </trk>
</gpx>